createdAt,value
2018-12-15T00:00:41.452Z,99.99
2018-12-15T00:01:41.436Z,99.99
2018-12-15T00:03:02.427Z,99.99
2018-12-15T00:03:41.409Z,99.99
2018-12-15T00:04:41.399Z,99.99
2018-12-15T00:05:41.417Z,99.99
2018-12-15T00:06:41.373Z,99.99
2018-12-15T00:07:41.355Z,99.99
2018-12-15T00:09:02.349Z,99.99
2018-12-15T00:09:41.329Z,99.99
2018-12-15T00:10:41.330Z,99.99
2018-12-15T00:11:41.389Z,99.99
2018-12-15T00:12:41.286Z,99.99
2018-12-15T00:13:41.341Z,99.99
2018-12-15T00:15:02.265Z,99.99
2018-12-15T00:15:41.253Z,99.99
2018-12-15T00:16:41.239Z,99.99
2018-12-15T00:17:41.222Z,99.99
2018-12-15T00:18:41.222Z,99.99
2018-12-15T00:19:41.200Z,99.99
2018-12-15T00:21:02.190Z,99.99
2018-12-15T00:21:41.167Z,99.99
2018-12-15T00:22:41.154Z,99.99
2018-12-15T00:23:41.142Z,99.99
2018-12-15T00:24:41.131Z,99.99
2018-12-15T00:25:41.114Z,99.99
2018-12-15T00:27:02.110Z,99.99
2018-12-15T00:27:41.094Z,99.99
2018-12-15T00:28:41.156Z,99.99
2018-12-15T00:29:41.064Z,99.99
2018-12-15T00:30:41.051Z,99.99
2018-12-15T00:31:41.055Z,99.99
2018-12-15T00:33:02.026Z,99.99
2018-12-15T00:33:41.012Z,99.99
2018-12-15T00:34:40.999Z,99.99
2018-12-15T00:35:40.984Z,99.99
2018-12-15T00:36:40.970Z,99.99
2018-12-15T00:37:40.971Z,99.99
2018-12-15T00:39:01.947Z,99.99
2018-12-15T00:39:40.928Z,99.99
2018-12-15T00:40:40.917Z,99.99
2018-12-15T00:41:40.919Z,99.99
2018-12-15T00:42:40.907Z,99.99
2018-12-15T00:43:40.894Z,99.99
2018-12-15T00:45:01.880Z,99.99
2018-12-15T00:45:40.849Z,99.99
2018-12-15T00:46:40.858Z,99.99
2018-12-15T00:47:40.853Z,99.99
2018-12-15T00:48:40.816Z,99.99
2018-12-15T00:49:40.797Z,99.99
2018-12-15T00:51:01.808Z,99.99
2018-12-15T00:51:40.770Z,99.99
2018-12-15T00:52:40.752Z,99.99
2018-12-15T00:53:40.742Z,99.99
2018-12-15T00:54:40.730Z,99.99
2018-12-15T00:55:40.718Z,99.99
2018-12-15T00:57:01.708Z,99.99
2018-12-15T00:57:40.687Z,99.99
2018-12-15T00:58:40.674Z,99.99
2018-12-15T00:59:40.661Z,99.99
2018-12-15T01:00:40.653Z,99.99
2018-12-15T01:01:40.639Z,99.99
2018-12-15T01:03:01.623Z,99.99
2018-12-15T01:03:40.616Z,99.99
2018-12-15T01:04:41.552Z,99.99
2018-12-15T01:05:40.580Z,99.99
2018-12-15T01:06:40.566Z,99.99
2018-12-15T01:07:40.552Z,99.99
2018-12-15T01:09:01.558Z,99.99
2018-12-15T01:09:40.532Z,99.99
2018-12-15T01:10:40.516Z,99.99
2018-12-15T01:11:40.525Z,99.99
2018-12-15T01:12:40.490Z,99.99
2018-12-15T01:13:40.475Z,99.99
2018-12-15T01:15:01.465Z,99.99
2018-12-15T01:15:41.069Z,99.99
2018-12-15T01:16:40.437Z,99.99
2018-12-15T01:17:40.420Z,99.99
2018-12-15T01:18:40.408Z,99.99
2018-12-15T01:19:40.477Z,99.99
2018-12-15T01:21:01.385Z,99.99
2018-12-15T01:21:40.367Z,99.99
2018-12-15T01:22:40.348Z,99.99
2018-12-15T01:23:40.340Z,99.99
2018-12-15T01:24:40.335Z,99.99
2018-12-15T01:25:40.309Z,99.99
2018-12-15T01:27:01.301Z,99.99
2018-12-15T01:27:40.294Z,99.99
2018-12-15T01:28:40.268Z,99.99
2018-12-15T01:29:40.259Z,99.99
2018-12-15T01:30:40.269Z,99.99
2018-12-15T01:31:40.235Z,99.99
2018-12-15T01:33:01.222Z,99.99
2018-12-15T01:33:40.207Z,99.99
2018-12-15T01:34:40.191Z,99.99
2018-12-15T01:35:40.176Z,99.99
2018-12-15T01:36:40.165Z,99.99
2018-12-15T01:37:40.150Z,99.99
2018-12-15T01:39:01.141Z,99.99
2018-12-15T01:39:40.122Z,99.99
2018-12-15T01:40:40.110Z,99.99
2018-12-15T01:41:40.097Z,99.99
2018-12-15T01:42:40.090Z,99.99
2018-12-15T01:43:40.075Z,99.99
2018-12-15T01:45:01.056Z,99.99
2018-12-15T01:45:40.047Z,99.99
2018-12-15T01:46:40.027Z,99.99
2018-12-15T01:47:40.012Z,99.99
2018-12-15T01:48:40.005Z,99.99
2018-12-15T01:49:39.999Z,99.99
2018-12-15T01:51:00.986Z,99.99
2018-12-15T01:51:39.960Z,99.99
2018-12-15T01:52:39.948Z,99.99
2018-12-15T01:53:39.935Z,99.99
2018-12-15T01:54:39.916Z,99.99
2018-12-15T01:55:39.903Z,99.99
2018-12-15T01:57:00.930Z,99.99
2018-12-15T01:57:39.883Z,99.99
2018-12-15T01:58:39.865Z,99.99
2018-12-15T01:59:39.850Z,99.99
2018-12-15T02:00:39.839Z,99.99
2018-12-15T02:01:39.825Z,99.99
2018-12-15T02:03:00.816Z,99.99
2018-12-15T02:03:39.803Z,99.99
2018-12-15T02:04:39.785Z,99.99
2018-12-15T02:05:39.773Z,99.99
2018-12-15T02:06:39.757Z,99.99
2018-12-15T02:07:39.741Z,99.99
2018-12-15T02:09:01.488Z,99.99
2018-12-15T02:09:39.802Z,99.99
2018-12-15T02:10:39.699Z,99.99
2018-12-15T02:11:39.691Z,99.99
2018-12-15T02:12:39.677Z,99.99
2018-12-15T02:13:39.664Z,99.99
2018-12-15T02:15:00.652Z,99.99
2018-12-15T02:15:39.632Z,99.99
2018-12-15T02:16:39.624Z,99.99
2018-12-15T02:17:39.624Z,99.99
2018-12-15T02:18:39.596Z,99.99
2018-12-15T02:19:39.581Z,99.99
2018-12-15T02:21:00.575Z,99.99
2018-12-15T02:21:39.550Z,99.99
2018-12-15T02:22:39.539Z,99.99
2018-12-15T02:23:39.522Z,99.99
2018-12-15T02:24:39.514Z,99.99
2018-12-15T02:25:39.495Z,99.99
2018-12-15T02:27:00.487Z,99.99
2018-12-15T02:27:39.472Z,99.99
2018-12-15T02:28:39.462Z,99.99
2018-12-15T02:29:39.444Z,99.99
2018-12-15T02:30:39.434Z,99.99
2018-12-15T02:31:39.419Z,99.99
2018-12-15T02:33:00.401Z,99.99
2018-12-15T02:33:39.389Z,99.99
2018-12-15T02:34:39.378Z,99.99
2018-12-15T02:35:39.359Z,99.99
2018-12-15T02:36:39.356Z,99.99
2018-12-15T02:37:39.338Z,99.99
2018-12-15T02:39:00.323Z,99.99
2018-12-15T02:39:39.310Z,99.99
2018-12-15T02:40:39.290Z,99.99
2018-12-15T02:41:39.280Z,99.99
2018-12-15T02:42:39.275Z,99.99
2018-12-15T02:43:39.252Z,99.99
2018-12-15T02:45:00.247Z,99.99
2018-12-15T02:45:39.224Z,99.99
2018-12-15T02:46:39.208Z,99.99
2018-12-15T02:47:41.713Z,99.99
2018-12-15T02:48:39.183Z,99.99
2018-12-15T02:49:39.170Z,99.99
2018-12-15T02:51:00.157Z,99.99
2018-12-15T02:51:39.143Z,99.99
2018-12-15T02:52:39.129Z,99.99
2018-12-15T02:53:39.120Z,99.99
2018-12-15T02:54:39.106Z,99.99
2018-12-15T02:55:39.127Z,99.99
2018-12-15T02:57:00.079Z,99.99
2018-12-15T02:57:39.059Z,99.99
2018-12-15T02:58:39.048Z,99.99
2018-12-15T02:59:39.124Z,99.99
2018-12-15T03:00:41.142Z,99.99
2018-12-15T03:01:39.006Z,99.99
2018-12-15T03:02:59.998Z,99.99
2018-12-15T03:03:38.983Z,99.99
2018-12-15T03:04:38.967Z,99.99
2018-12-15T03:05:38.951Z,99.99
2018-12-15T03:06:38.936Z,99.99
2018-12-15T03:07:38.924Z,99.99
2018-12-15T03:08:59.914Z,99.99
2018-12-15T03:09:38.894Z,99.99
2018-12-15T03:10:38.882Z,99.99
2018-12-15T03:11:38.872Z,99.99
2018-12-15T03:12:38.870Z,99.99
2018-12-15T03:13:38.843Z,99.99
2018-12-15T03:14:59.831Z,99.99
2018-12-15T03:15:38.812Z,99.99
2018-12-15T03:16:38.811Z,99.99
2018-12-15T03:17:38.786Z,99.99
2018-12-15T03:18:38.771Z,99.99
2018-12-15T03:19:38.764Z,99.99
2018-12-15T03:20:59.749Z,99.99
2018-12-15T03:21:38.730Z,99.99
2018-12-15T03:22:38.717Z,99.99
2018-12-15T03:23:38.725Z,99.99
2018-12-15T03:24:38.696Z,99.99
2018-12-15T03:25:38.695Z,99.99
2018-12-15T03:26:59.668Z,99.99
2018-12-15T03:27:38.648Z,99.99
2018-12-15T03:28:38.644Z,99.99
2018-12-15T03:29:38.624Z,99.99
2018-12-15T03:30:38.610Z,99.99
2018-12-15T03:31:38.602Z,99.99
2018-12-15T03:32:59.590Z,99.99
2018-12-15T03:33:38.569Z,99.99
2018-12-15T03:34:38.555Z,99.99
2018-12-15T03:35:38.551Z,99.99
2018-12-15T03:36:38.525Z,99.99
2018-12-15T03:37:38.517Z,99.99
2018-12-15T03:38:59.504Z,99.99
2018-12-15T03:39:38.485Z,99.99
2018-12-15T03:40:38.471Z,99.99
2018-12-15T03:41:38.468Z,99.99
2018-12-15T03:42:38.449Z,99.99
2018-12-15T03:43:38.431Z,99.99
2018-12-15T03:44:59.424Z,99.99
2018-12-15T03:45:38.411Z,99.99
2018-12-15T03:46:38.390Z,99.99
2018-12-15T03:47:38.379Z,99.99
2018-12-15T03:48:38.363Z,99.99
2018-12-15T03:49:38.351Z,99.99
2018-12-15T03:50:59.358Z,99.99
2018-12-15T03:51:38.323Z,99.99
2018-12-15T03:52:38.307Z,99.99
2018-12-15T03:53:38.294Z,99.99
2018-12-15T03:54:38.282Z,99.99
2018-12-15T03:55:38.276Z,99.99
2018-12-15T03:56:59.257Z,99.99
2018-12-15T03:57:38.238Z,99.99
2018-12-15T03:58:38.229Z,99.99
2018-12-15T03:59:38.214Z,99.99
2018-12-15T04:00:38.196Z,99.99
2018-12-15T04:01:38.195Z,99.99
2018-12-15T04:02:59.174Z,99.99
2018-12-15T04:03:38.159Z,99.99
2018-12-15T04:04:38.143Z,99.99
2018-12-15T04:05:38.129Z,99.99
2018-12-15T04:06:38.113Z,99.99
2018-12-15T04:07:38.105Z,99.99
2018-12-15T04:08:59.093Z,99.99
2018-12-15T04:09:38.075Z,99.99
2018-12-15T04:10:38.094Z,99.99
2018-12-15T04:11:38.056Z,99.99
2018-12-15T04:12:38.045Z,99.99
2018-12-15T04:13:38.022Z,99.99
2018-12-15T04:14:59.008Z,99.99
2018-12-15T04:15:37.999Z,99.99
2018-12-15T04:16:37.987Z,99.99
2018-12-15T04:17:37.967Z,99.99
2018-12-15T04:18:37.952Z,99.99
2018-12-15T04:19:37.941Z,99.99
2018-12-15T04:20:58.929Z,99.99
2018-12-15T04:21:37.928Z,99.99
2018-12-15T04:22:37.901Z,99.99
2018-12-15T04:23:37.887Z,99.99
2018-12-15T04:24:37.872Z,99.99
2018-12-15T04:25:37.865Z,99.99
2018-12-15T04:26:58.847Z,99.99
2018-12-15T04:27:37.834Z,99.99
2018-12-15T04:28:37.890Z,99.99
2018-12-15T04:29:37.806Z,99.99
2018-12-15T04:30:37.791Z,99.99
2018-12-15T04:31:37.778Z,99.99
2018-12-15T04:32:58.768Z,99.99
2018-12-15T04:33:37.752Z,99.99
2018-12-15T04:34:37.737Z,99.99
2018-12-15T04:35:37.724Z,99.99
2018-12-15T04:36:37.708Z,99.99
2018-12-15T04:37:37.698Z,99.99
2018-12-15T04:38:58.690Z,99.99
2018-12-15T04:39:37.674Z,99.99
2018-12-15T04:40:37.657Z,99.99
2018-12-15T04:41:37.649Z,99.99
2018-12-15T04:42:37.635Z,99.99
2018-12-15T04:43:37.621Z,99.99
2018-12-15T04:44:58.607Z,99.99
2018-12-15T04:45:37.591Z,99.99
2018-12-15T04:46:37.579Z,99.99
2018-12-15T04:47:37.563Z,99.99
2018-12-15T04:48:37.550Z,99.99
2018-12-15T04:49:37.540Z,99.99
2018-12-15T04:50:58.531Z,99.99
2018-12-15T04:51:37.511Z,99.99
2018-12-15T04:52:37.496Z,99.99
2018-12-15T04:53:37.484Z,99.99
2018-12-15T04:54:37.468Z,99.99
2018-12-15T04:55:37.457Z,99.99
2018-12-15T04:56:58.452Z,99.99
2018-12-15T04:57:37.461Z,99.99
2018-12-15T04:58:37.420Z,99.99
2018-12-15T04:59:37.410Z,99.99
2018-12-15T05:00:37.390Z,99.99
2018-12-15T05:01:37.376Z,99.99
2018-12-15T05:02:58.368Z,99.99
2018-12-15T05:03:37.354Z,99.99
2018-12-15T05:04:37.336Z,99.99
2018-12-15T05:05:37.323Z,99.99
2018-12-15T05:06:37.309Z,99.99
2018-12-15T05:07:37.296Z,99.99
2018-12-15T05:08:58.288Z,99.99
2018-12-15T05:09:37.273Z,99.99
2018-12-15T05:10:37.257Z,99.99
2018-12-15T05:11:37.249Z,99.99
2018-12-15T05:12:37.234Z,99.99
2018-12-15T05:13:37.218Z,99.99
2018-12-15T05:14:58.211Z,99.99
2018-12-15T05:15:37.191Z,99.99
2018-12-15T05:16:37.174Z,99.99
2018-12-15T05:17:37.161Z,99.99
2018-12-15T05:18:37.153Z,99.99
2018-12-15T05:19:37.139Z,99.99
2018-12-15T05:20:58.126Z,99.99
2018-12-15T05:21:37.113Z,99.99
2018-12-15T05:22:37.096Z,99.99
2018-12-15T05:23:37.085Z,99.99
2018-12-15T05:24:37.069Z,99.99
2018-12-15T05:25:37.058Z,99.99
2018-12-15T05:26:58.045Z,99.99
2018-12-15T05:27:37.026Z,99.99
2018-12-15T05:28:37.014Z,99.99
2018-12-15T05:29:37.004Z,99.99
2018-12-15T05:30:36.989Z,99.99
2018-12-15T05:31:37.069Z,99.99
2018-12-15T05:32:57.964Z,99.99
2018-12-15T05:33:36.945Z,99.99
2018-12-15T05:34:36.937Z,99.99
2018-12-15T05:35:36.955Z,99.99
2018-12-15T05:36:36.912Z,99.99
2018-12-15T05:37:36.895Z,99.99
2018-12-15T05:38:57.885Z,99.99
2018-12-15T05:39:36.865Z,99.99
2018-12-15T05:40:36.857Z,99.99
2018-12-15T05:41:36.838Z,99.99
2018-12-15T05:42:36.824Z,99.99
2018-12-15T05:43:36.812Z,99.99
2018-12-15T05:44:57.799Z,99.99
2018-12-15T05:45:36.787Z,99.99
2018-12-15T05:46:36.769Z,99.99
2018-12-15T05:47:36.826Z,99.99
2018-12-15T05:48:36.754Z,99.99
2018-12-15T05:49:36.731Z,99.99
2018-12-15T05:50:57.718Z,99.99
2018-12-15T05:51:36.709Z,99.99
2018-12-15T05:52:36.693Z,99.99
2018-12-15T05:53:36.677Z,99.99
2018-12-15T05:54:36.675Z,99.99
2018-12-15T05:55:36.650Z,99.99
2018-12-15T05:56:57.641Z,99.99
2018-12-15T05:57:36.619Z,99.99
2018-12-15T05:58:36.607Z,99.99
2018-12-15T05:59:36.597Z,99.99
2018-12-15T06:00:36.580Z,99.99
2018-12-15T06:01:36.566Z,99.99
2018-12-15T06:02:57.558Z,99.99
2018-12-15T06:03:36.539Z,99.99
2018-12-15T06:04:36.526Z,99.99
2018-12-15T06:05:36.513Z,99.99
2018-12-15T06:06:36.505Z,99.99
2018-12-15T06:07:36.488Z,99.99
2018-12-15T06:08:57.479Z,99.99
2018-12-15T06:09:36.458Z,99.99
2018-12-15T06:10:36.443Z,99.99
2018-12-15T06:11:36.443Z,99.99
2018-12-15T06:12:36.416Z,99.99
2018-12-15T06:13:36.402Z,99.99
2018-12-15T06:14:57.400Z,99.99
2018-12-15T06:15:36.385Z,99.99
2018-12-15T06:16:36.361Z,99.99
2018-12-15T06:17:36.348Z,99.99
2018-12-15T06:18:36.336Z,99.99
2018-12-15T06:19:36.321Z,99.99
2018-12-15T06:20:57.311Z,99.99
2018-12-15T06:21:36.296Z,99.99
2018-12-15T06:22:36.360Z,99.99
2018-12-15T06:23:36.266Z,99.99
2018-12-15T06:24:36.258Z,99.99
2018-12-15T06:25:36.240Z,99.99
2018-12-15T06:26:57.231Z,99.99
2018-12-15T06:27:36.209Z,99.99
2018-12-15T06:28:36.197Z,99.99
2018-12-15T06:29:36.196Z,99.99
2018-12-15T06:30:36.171Z,99.99
2018-12-15T06:31:36.156Z,99.99
2018-12-15T06:32:57.152Z,99.99
2018-12-15T06:33:36.130Z,99.99
2018-12-15T06:34:36.113Z,99.99
2018-12-15T06:35:36.108Z,99.99
2018-12-15T06:36:36.087Z,99.99
2018-12-15T06:37:36.072Z,99.99
2018-12-15T06:38:57.065Z,99.99
2018-12-15T06:39:36.057Z,99.99
2018-12-15T06:40:36.034Z,99.99
2018-12-15T06:41:36.026Z,99.99
2018-12-15T06:42:36.010Z,99.99
2018-12-15T06:43:35.994Z,99.99
2018-12-15T06:44:56.981Z,99.99
2018-12-15T06:45:35.963Z,99.99
2018-12-15T06:46:35.946Z,99.99
2018-12-15T06:47:35.936Z,99.99
2018-12-15T06:48:38.234Z,99.99
2018-12-15T06:49:35.919Z,99.99
2018-12-15T06:50:56.895Z,99.99
2018-12-15T06:51:35.903Z,99.99
2018-12-15T06:52:35.876Z,99.99
2018-12-15T06:53:35.857Z,99.99
2018-12-15T06:54:35.844Z,99.99
2018-12-15T06:55:35.830Z,99.99
2018-12-15T06:56:56.817Z,99.99
2018-12-15T06:57:35.798Z,99.99
2018-12-15T06:58:35.783Z,99.99
2018-12-15T06:59:35.777Z,99.99
2018-12-15T07:00:35.758Z,99.99
2018-12-15T07:01:35.749Z,99.99
2018-12-15T07:02:56.746Z,99.99
2018-12-15T07:03:35.715Z,99.99
2018-12-15T07:04:35.708Z,99.99
2018-12-15T07:05:35.689Z,99.99
2018-12-15T07:06:35.682Z,99.99
2018-12-15T07:07:35.687Z,99.99
2018-12-15T07:08:56.655Z,99.99
2018-12-15T07:09:35.635Z,99.99
2018-12-15T07:10:35.622Z,99.99
2018-12-15T07:11:35.604Z,99.99
2018-12-15T07:12:37.189Z,99.99
2018-12-15T07:13:35.590Z,99.99
2018-12-15T07:14:56.568Z,99.99
2018-12-15T07:15:35.550Z,99.99
2018-12-15T07:16:35.542Z,99.99
2018-12-15T07:17:35.523Z,99.99
2018-12-15T07:18:35.509Z,99.99
2018-12-15T07:19:35.503Z,99.99
2018-12-15T07:20:56.493Z,99.99
2018-12-15T07:21:35.466Z,99.99
2018-12-15T07:22:35.451Z,99.99
2018-12-15T07:23:35.442Z,99.99
2018-12-15T07:24:35.433Z,99.99
2018-12-15T07:25:35.419Z,99.99
2018-12-15T07:26:56.408Z,99.99
2018-12-15T07:27:35.415Z,99.99
2018-12-15T07:28:35.374Z,99.99
2018-12-15T07:29:35.369Z,99.99
2018-12-15T07:30:38.107Z,99.99
2018-12-15T07:31:35.334Z,99.99
2018-12-15T07:32:56.328Z,99.99
2018-12-15T07:33:35.302Z,99.99
2018-12-15T07:34:35.289Z,99.99
2018-12-15T07:35:35.277Z,99.99
2018-12-15T07:36:35.265Z,99.99
2018-12-15T07:37:35.248Z,99.99
2018-12-15T07:38:56.240Z,99.99
2018-12-15T07:39:35.223Z,99.99
2018-12-15T07:40:35.210Z,99.99
2018-12-15T07:41:35.194Z,99.99
2018-12-15T07:42:35.179Z,99.99
2018-12-15T07:43:35.167Z,99.99
2018-12-15T07:44:56.192Z,99.99
2018-12-15T07:45:35.138Z,99.99
2018-12-15T07:46:35.124Z,99.99
2018-12-15T07:47:35.111Z,99.99
2018-12-15T07:48:35.099Z,99.99
2018-12-15T07:49:35.088Z,99.99
2018-12-15T07:50:56.133Z,99.99
2018-12-15T07:51:35.057Z,99.99
2018-12-15T07:52:35.045Z,99.99
2018-12-15T07:53:35.033Z,99.99
2018-12-15T07:54:35.027Z,99.99
2018-12-15T07:55:35.006Z,99.99
2018-12-15T07:56:55.994Z,99.99
2018-12-15T07:57:34.979Z,99.99
2018-12-15T07:58:34.960Z,99.99
2018-12-15T07:59:34.961Z,99.99
2018-12-15T08:00:34.938Z,99.99
2018-12-15T08:01:34.921Z,99.99
2018-12-15T08:02:56.011Z,99.99
2018-12-15T08:03:34.898Z,99.99
2018-12-15T08:04:34.888Z,99.99
2018-12-15T08:05:34.870Z,99.99
2018-12-15T08:06:34.855Z,99.99
2018-12-15T08:07:34.841Z,99.99
2018-12-15T08:08:55.832Z,99.99
2018-12-15T08:09:34.816Z,99.99
2018-12-15T08:10:34.803Z,99.99
2018-12-15T08:11:34.786Z,99.99
2018-12-15T08:12:34.775Z,99.99
2018-12-15T08:13:34.760Z,99.99
2018-12-15T08:14:55.754Z,99.99
2018-12-15T08:15:34.737Z,99.99
2018-12-15T08:16:34.722Z,99.99
2018-12-15T08:17:34.708Z,99.99
2018-12-15T08:18:34.706Z,99.99
2018-12-15T08:19:34.685Z,99.99
2018-12-15T08:20:55.748Z,99.99
2018-12-15T08:21:34.654Z,99.99
2018-12-15T08:22:34.639Z,99.99
2018-12-15T08:23:34.628Z,99.99
2018-12-15T08:24:34.618Z,99.99
2018-12-15T08:25:34.605Z,99.99
2018-12-15T08:26:55.591Z,99.99
2018-12-15T08:27:34.578Z,99.99
2018-12-15T08:28:34.563Z,99.99
2018-12-15T08:29:34.552Z,99.99
2018-12-15T08:30:34.539Z,99.99
2018-12-15T08:31:34.527Z,99.99
2018-12-15T08:32:55.516Z,99.99
2018-12-15T08:33:34.497Z,99.99
2018-12-15T08:34:34.485Z,99.99
2018-12-15T08:35:34.494Z,99.99
2018-12-15T08:36:34.457Z,99.99
2018-12-15T08:37:34.447Z,99.99
2018-12-15T08:38:55.440Z,99.99
2018-12-15T08:39:34.419Z,99.99
2018-12-15T08:40:34.409Z,99.99
2018-12-15T08:41:34.395Z,99.99
2018-12-15T08:42:34.455Z,99.99
2018-12-15T08:43:34.461Z,99.99
2018-12-15T08:44:55.427Z,99.99
2018-12-15T08:45:34.344Z,99.99
2018-12-15T08:46:34.331Z,99.99
2018-12-15T08:47:34.324Z,99.99
2018-12-15T08:48:34.301Z,99.99
2018-12-15T08:49:34.300Z,99.99
2018-12-15T08:50:55.282Z,99.99
2018-12-15T08:51:34.266Z,99.99
2018-12-15T08:52:34.258Z,99.99
2018-12-15T08:53:34.238Z,99.99
2018-12-15T08:54:34.228Z,99.99
2018-12-15T08:55:34.215Z,99.99
2018-12-15T08:56:55.299Z,99.99
2018-12-15T08:57:34.191Z,99.99
2018-12-15T08:58:34.180Z,99.99
2018-12-15T08:59:34.164Z,99.99
2018-12-15T09:00:34.156Z,99.99
2018-12-15T09:01:34.148Z,99.99
2018-12-15T09:02:55.143Z,99.99
2018-12-15T09:03:34.271Z,99.99
2018-12-15T09:04:34.104Z,99.99
2018-12-15T09:05:34.091Z,99.99
2018-12-15T09:06:34.195Z,99.99
2018-12-15T09:07:34.061Z,99.99
2018-12-15T09:08:55.081Z,99.99
2018-12-15T09:09:34.044Z,99.99
2018-12-15T09:10:34.027Z,99.99
2018-12-15T09:11:34.022Z,99.99
2018-12-15T09:12:34.003Z,99.99
2018-12-15T09:13:34.005Z,99.99
2018-12-15T09:14:54.981Z,99.99
2018-12-15T09:15:33.968Z,99.99
2018-12-15T09:16:33.959Z,99.99
2018-12-15T09:17:33.944Z,99.99
2018-12-15T09:18:33.927Z,99.99
2018-12-15T09:19:33.944Z,99.99
2018-12-15T09:20:54.913Z,99.99
2018-12-15T09:21:33.899Z,99.99
2018-12-15T09:22:33.880Z,99.99
2018-12-15T09:23:33.884Z,99.99
2018-12-15T09:24:33.956Z,99.99
2018-12-15T09:25:33.851Z,99.99
2018-12-15T09:26:54.843Z,99.99
2018-12-15T09:27:33.820Z,99.99
2018-12-15T09:28:33.812Z,99.99
2018-12-15T09:29:33.797Z,99.99
2018-12-15T09:30:33.811Z,99.99
2018-12-15T09:31:33.786Z,99.99
2018-12-15T09:32:54.767Z,99.99
2018-12-15T09:33:33.750Z,99.99
2018-12-15T09:34:33.738Z,99.99
2018-12-15T09:35:33.731Z,99.99
2018-12-15T09:36:33.715Z,99.99
2018-12-15T09:37:33.707Z,99.99
2018-12-15T09:38:54.704Z,99.99
2018-12-15T09:39:33.680Z,99.99
2018-12-15T09:40:33.669Z,99.99
2018-12-15T09:41:33.654Z,99.99
2018-12-15T09:42:33.647Z,99.99
2018-12-15T09:43:33.629Z,99.99
2018-12-15T09:44:58.093Z,99.99
2018-12-15T09:45:33.610Z,99.99
2018-12-15T09:46:33.597Z,99.99
2018-12-15T09:47:33.626Z,99.99
2018-12-15T09:48:33.576Z,99.99
2018-12-15T09:49:33.571Z,99.99
2018-12-15T09:50:54.556Z,99.99
2018-12-15T09:51:33.554Z,99.99
2018-12-15T09:52:33.533Z,99.99
2018-12-15T09:53:33.541Z,99.99
2018-12-15T09:54:33.511Z,99.99
2018-12-15T09:55:33.498Z,99.99
2018-12-15T09:56:54.517Z,99.99
2018-12-15T09:57:33.481Z,99.99
2018-12-15T09:58:33.462Z,99.99
2018-12-15T09:59:33.458Z,99.99
2018-12-15T10:00:33.441Z,99.99
2018-12-15T10:01:33.432Z,99.99
2018-12-15T10:02:54.422Z,99.99
2018-12-15T10:03:33.407Z,99.99
2018-12-15T10:04:33.405Z,99.99
2018-12-15T10:05:33.393Z,99.99
2018-12-15T10:06:33.378Z,99.99
2018-12-15T10:07:33.363Z,99.99
2018-12-15T10:08:54.414Z,99.99
2018-12-15T10:09:33.392Z,99.99
2018-12-15T10:10:33.330Z,99.99
2018-12-15T10:11:33.318Z,99.99
2018-12-15T10:12:33.307Z,99.99
2018-12-15T10:13:33.301Z,99.99
2018-12-15T10:14:54.295Z,99.99
2018-12-15T10:15:33.360Z,99.99
2018-12-15T10:16:33.265Z,99.99
2018-12-15T10:17:33.328Z,99.99
2018-12-15T10:18:33.243Z,99.99
2018-12-15T10:19:33.419Z,99.99
2018-12-15T10:20:54.228Z,99.99
2018-12-15T10:21:33.223Z,99.99
2018-12-15T10:22:33.217Z,99.99
2018-12-15T10:23:33.189Z,99.99
2018-12-15T10:24:33.183Z,99.99
2018-12-15T10:25:33.174Z,99.99
2018-12-15T10:26:54.166Z,99.99
2018-12-15T10:27:33.153Z,99.99
2018-12-15T10:28:33.142Z,99.99
2018-12-15T10:29:33.134Z,99.94
2018-12-15T10:30:33.127Z,99.99
2018-12-15T10:31:33.107Z,99.99
2018-12-15T10:32:54.122Z,99.99
2018-12-15T10:33:33.107Z,99.99
2018-12-15T10:34:33.100Z,99.99
2018-12-15T10:35:33.163Z,99.99
2018-12-15T10:36:33.062Z,99.99
2018-12-15T10:37:33.058Z,99.99
2018-12-15T10:38:54.047Z,99.99
2018-12-15T10:39:33.051Z,99.99
2018-12-15T10:40:33.017Z,99.52
2018-12-15T10:41:33.007Z,99.85
2018-12-15T10:42:33.002Z,97.25
2018-12-15T10:43:32.988Z,94.04
2018-12-15T10:44:53.988Z,92.38
2018-12-15T10:45:32.973Z,94.03
2018-12-15T10:46:32.960Z,96.40
2018-12-15T10:47:32.983Z,96.59
2018-12-15T10:48:32.943Z,97.06
2018-12-15T10:49:32.949Z,98.57
2018-12-15T10:50:53.935Z,99.94
2018-12-15T10:51:32.922Z,99.71
2018-12-15T10:52:32.922Z,99.99
2018-12-15T10:53:32.899Z,99.23
2018-12-15T10:54:32.895Z,98.47
2018-12-15T10:55:32.881Z,98.85
2018-12-15T10:56:53.879Z,99.04
2018-12-15T10:57:32.878Z,99.04
2018-12-15T10:58:32.853Z,98.47
2018-12-15T10:59:32.854Z,98.80
2018-12-15T11:00:32.832Z,99.46
2018-12-15T11:01:32.823Z,99.94
2018-12-15T11:02:53.816Z,99.99
2018-12-15T11:03:32.804Z,99.56
2018-12-15T11:04:32.797Z,99.52
2018-12-15T11:05:32.791Z,98.76
2018-12-15T11:06:32.793Z,99.23
2018-12-15T11:07:34.274Z,98.95
2018-12-15T11:08:53.773Z,98.47
2018-12-15T11:09:32.822Z,98.95
2018-12-15T11:10:32.748Z,98.76
2018-12-15T11:11:32.740Z,98.00
2018-12-15T11:12:32.724Z,96.07
2018-12-15T11:13:32.713Z,95.36
2018-12-15T11:14:53.711Z,95.36
2018-12-15T11:15:32.693Z,95.54
2018-12-15T11:16:32.685Z,95.73
2018-12-15T11:17:32.678Z,96.21
2018-12-15T11:18:32.668Z,96.21
2018-12-15T11:19:37.129Z,95.92
2018-12-15T11:20:53.675Z,95.54
2018-12-15T11:21:32.641Z,95.36
2018-12-15T11:22:33.997Z,94.60
2018-12-15T11:23:32.624Z,95.21
2018-12-15T11:24:32.618Z,94.13
2018-12-15T11:25:34.405Z,92.29
2018-12-15T11:26:53.603Z,89.92
2018-12-15T11:27:32.591Z,88.26
2018-12-15T11:28:32.579Z,87.74
2018-12-15T11:29:32.580Z,86.93
2018-12-15T11:30:32.565Z,85.85
2018-12-15T11:31:32.562Z,86.51
2018-12-15T11:32:53.556Z,85.99
2018-12-15T11:33:32.543Z,86.94
2018-12-15T11:34:32.537Z,88.45
2018-12-15T11:35:32.574Z,89.40
2018-12-15T11:36:32.522Z,89.31
2018-12-15T11:37:32.559Z,89.40
2018-12-15T11:38:53.512Z,88.83
2018-12-15T11:39:32.499Z,89.02
2018-12-15T11:40:32.509Z,89.92
2018-12-15T11:41:32.483Z,90.63
2018-12-15T11:42:32.474Z,90.16
2018-12-15T11:43:32.549Z,88.12
2018-12-15T11:44:53.465Z,87.17
2018-12-15T11:45:32.452Z,85.80
2018-12-15T11:46:32.445Z,84.94
2018-12-15T11:47:32.460Z,84.09
2018-12-15T11:48:32.476Z,83.95
2018-12-15T11:49:32.430Z,83.95
2018-12-15T11:50:53.427Z,84.71
2018-12-15T11:51:32.420Z,83.95
2018-12-15T11:52:32.408Z,84.23
2018-12-15T11:53:32.400Z,84.05
2018-12-15T11:54:32.397Z,83.91
2018-12-15T11:55:32.388Z,85.71
2018-12-15T11:56:53.395Z,86.18
2018-12-15T11:57:32.377Z,86.51
2018-12-15T11:58:32.372Z,84.94
2018-12-15T11:59:32.362Z,84.85
2018-12-15T12:00:32.359Z,83.76
2018-12-15T12:01:32.350Z,83.86
2018-12-15T12:02:53.348Z,84.10
2018-12-15T12:03:32.339Z,83.91
2018-12-15T12:04:32.376Z,85.71
2018-12-15T12:05:32.326Z,85.19
2018-12-15T12:06:32.317Z,84.14
2018-12-15T12:07:32.311Z,84.01
2018-12-15T12:08:53.327Z,85.24
2018-12-15T12:09:32.321Z,85.99
2018-12-15T12:10:32.294Z,85.99
2018-12-15T12:11:32.285Z,86.18
2018-12-15T12:12:32.285Z,86.47
2018-12-15T12:13:32.274Z,86.56
2018-12-15T12:14:53.271Z,86.99
2018-12-15T12:15:33.686Z,87.79
2018-12-15T12:16:32.252Z,89.69
2018-12-15T12:17:32.243Z,91.96
2018-12-15T12:18:32.233Z,93.32
2018-12-15T12:19:32.226Z,95.50
2018-12-15T12:20:53.230Z,96.73
2018-12-15T12:21:32.218Z,98.99
2018-12-15T12:22:32.217Z,98.52
2018-12-15T12:23:32.196Z,98.33
2018-12-15T12:24:32.195Z,98.05
2018-12-15T12:25:32.218Z,97.67
2018-12-15T12:26:53.178Z,98.33
2018-12-15T12:27:32.161Z,99.14
2018-12-15T12:28:32.152Z,97.63
2018-12-15T12:29:32.148Z,96.30
2018-12-15T12:30:32.138Z,95.64
2018-12-15T12:31:32.124Z,95.36
2018-12-15T12:32:53.126Z,96.02
2018-12-15T12:33:32.104Z,96.16
2018-12-15T12:34:32.096Z,96.73
2018-12-15T12:35:32.090Z,96.73
2018-12-15T12:36:32.081Z,97.67
2018-12-15T12:37:32.065Z,98.14
2018-12-15T12:38:53.093Z,97.67
2018-12-15T12:39:32.047Z,98.14
2018-12-15T12:40:32.035Z,98.14
2018-12-15T12:41:32.023Z,98.14
2018-12-15T12:42:32.046Z,98.61
2018-12-15T12:43:31.999Z,99.27
2018-12-15T12:44:52.999Z,98.61
2018-12-15T12:45:31.990Z,98.99
2018-12-15T12:46:31.970Z,98.43
2018-12-15T12:47:31.957Z,98.14
2018-12-15T12:48:31.950Z,97.77
2018-12-15T12:49:31.963Z,97.48
2018-12-15T12:50:52.946Z,97.48
2018-12-15T12:51:31.915Z,97.48
2018-12-15T12:52:31.915Z,97.67